createdAt,value
2023-09-08T04:01:27.606Z,12.12
2023-09-08T04:05:30.558Z,12.11
2023-09-08T04:09:33.765Z,12.15
2023-09-08T04:13:36.708Z,12.09
2023-09-08T04:17:41.079Z,12.11
2023-09-08T04:21:43.771Z,12.04
2023-09-08T04:25:46.397Z,12.03
2023-09-08T04:29:49.054Z,12.06
2023-09-08T04:33:54.513Z,11.94
2023-09-08T04:37:57.248Z,11.78
2023-09-08T04:42:00.185Z,11.74
2023-09-08T04:46:03.987Z,11.78
2023-09-08T04:50:09.887Z,11.83
2023-09-08T04:54:13.111Z,11.91
2023-09-08T04:58:15.993Z,11.99
2023-09-08T05:02:20.127Z,11.95
2023-09-08T05:06:24.847Z,11.95
2023-09-08T05:10:27.754Z,11.93
2023-09-08T05:14:30.466Z,12.03
2023-09-08T05:18:44.230Z,12.21
2023-09-08T05:22:48.352Z,12.36
2023-09-08T05:26:51.062Z,12.43
2023-09-08T05:30:55.115Z,12.56
2023-09-08T05:34:57.908Z,12.67
2023-09-08T05:39:01.970Z,12.80
2023-09-08T05:43:04.960Z,12.85
2023-09-08T05:47:08.316Z,13.03
2023-09-08T05:51:11.482Z,13.23
2023-09-08T05:55:15.617Z,13.43
2023-09-08T05:59:18.306Z,13.67
2023-09-08T06:03:21.396Z,13.93
2023-09-08T06:07:24.312Z,14.15
2023-09-08T06:11:28.463Z,14.36
2023-09-08T06:15:31.942Z,14.59
2023-09-08T06:19:34.722Z,14.84
2023-09-08T06:23:38.178Z,15.11
2023-09-08T06:27:42.607Z,15.34
2023-09-08T06:31:45.437Z,15.48
2023-09-08T06:35:48.288Z,15.73
2023-09-08T06:39:51.036Z,15.93
2023-09-08T06:43:56.736Z,16.19
2023-09-08T06:48:01.290Z,16.42
2023-09-08T06:52:05.056Z,16.56
2023-09-08T06:56:08.397Z,16.70
2023-09-08T07:00:14.129Z,16.93
2023-09-08T07:04:17.084Z,17.07
2023-09-08T07:08:20.183Z,17.26
2023-09-08T07:12:22.969Z,17.54
2023-09-08T07:16:27.136Z,17.77
2023-09-08T07:20:29.906Z,18.01
2023-09-08T07:24:32.600Z,18.23
2023-09-08T07:28:35.632Z,18.46
2023-09-08T07:32:42.681Z,18.63
2023-09-08T07:36:45.907Z,18.87
2023-09-08T07:40:48.630Z,19.12
2023-09-08T07:44:51.335Z,19.41
2023-09-08T07:48:55.805Z,19.60
2023-09-08T07:52:59.068Z,19.82
2023-09-08T07:57:01.534Z,20.09
2023-09-08T08:01:04.510Z,20.22
2023-09-08T08:05:10.261Z,20.40
2023-09-08T08:09:13.092Z,20.52
2023-09-08T08:13:15.748Z,20.73
2023-09-08T08:17:20.511Z,21.03
2023-09-08T08:21:24.802Z,21.32
2023-09-08T08:25:27.477Z,21.43
2023-09-08T08:29:30.146Z,21.66
2023-09-08T08:33:33.084Z,21.89
2023-09-08T08:37:37.103Z,22.09
2023-09-08T08:41:41.827Z,22.22
2023-09-08T08:45:45.184Z,22.48
2023-09-08T08:49:49.923Z,22.73
2023-09-08T08:53:54.073Z,22.96
2023-09-08T08:57:57.620Z,23.26
2023-09-08T09:02:01.087Z,23.43
2023-09-08T09:06:04.978Z,23.61
2023-09-08T09:10:10.066Z,23.95
2023-09-08T09:14:12.834Z,24.29
2023-09-08T09:18:15.576Z,24.62
2023-09-08T09:22:22.186Z,24.82
2023-09-08T09:26:28.056Z,25.05
2023-09-08T09:30:48.977Z,25.46
2023-09-08T09:34:54.350Z,25.68
2023-09-08T09:39:00.476Z,25.87
2023-09-08T09:43:05.720Z,26.07
2023-09-08T09:47:10.570Z,26.13
2023-09-08T09:51:19.658Z,26.40
2023-09-08T09:55:22.531Z,26.38
2023-09-08T09:59:27.499Z,26.48
2023-09-08T10:03:31.514Z,26.47
2023-09-08T10:07:34.371Z,26.54
2023-09-08T10:11:42.112Z,26.59
2023-09-08T10:15:47.103Z,26.69
2023-09-08T10:19:52.864Z,26.72
2023-09-08T10:24:01.598Z,26.90
2023-09-08T10:28:04.915Z,26.89
2023-09-08T10:32:10.901Z,26.95
2023-09-08T10:36:14.186Z,27.06
2023-09-08T10:40:24.455Z,27.25
2023-09-08T10:44:30.195Z,27.34
2023-09-08T10:48:42.423Z,27.45
2023-09-08T10:52:45.384Z,27.58
2023-09-08T10:56:56.995Z,27.67
2023-09-08T11:01:02.257Z,27.69
2023-09-08T11:05:09.815Z,27.79
2023-09-08T11:09:12.512Z,27.97
2023-09-08T11:13:15.473Z,28.10
2023-09-08T11:17:18.099Z,28.24
2023-09-08T11:21:22.649Z,28.41
2023-09-08T11:25:25.513Z,28.51
2023-09-08T11:29:28.807Z,28.64
2023-09-08T11:33:35.810Z,28.63
2023-09-08T11:37:41.235Z,28.58
2023-09-08T11:41:44.183Z,28.77
2023-09-08T11:45:47.024Z,29.02
2023-09-08T11:49:49.800Z,29.17
2023-09-08T11:53:54.410Z,29.12
2023-09-08T11:57:59.022Z,29.12
2023-09-08T12:02:02.513Z,29.21
2023-09-08T12:06:05.366Z,29.30
2023-09-08T12:10:14.329Z,29.35
2023-09-08T12:14:17.510Z,29.43
2023-09-08T12:18:20.257Z,29.45
2023-09-08T12:22:23.393Z,29.44
2023-09-08T12:26:27.949Z,29.61
2023-09-08T12:30:33.628Z,29.67
2023-09-08T12:34:37.005Z,29.73
2023-09-08T12:38:39.697Z,29.75
2023-09-08T12:42:47.392Z,29.85
2023-09-08T12:46:57.985Z,29.83
2023-09-08T12:51:00.796Z,30.01
2023-09-08T12:55:03.466Z,30.10
2023-09-08T12:59:07.562Z,30.11
2023-09-08T13:03:10.801Z,30.23
2023-09-08T13:07:13.470Z,30.25
2023-09-08T13:11:16.171Z,30.21
2023-09-08T13:15:20.233Z,30.25
2023-09-08T13:19:22.916Z,30.25
2023-09-08T13:23:25.569Z,30.29
2023-09-08T13:27:28.204Z,30.34
2023-09-08T13:31:32.273Z,30.33
2023-09-08T13:35:35.019Z,30.39
2023-09-08T13:39:38.329Z,30.40
2023-09-08T13:43:42.453Z,30.51
2023-09-08T13:47:48.476Z,30.45
2023-09-08T13:51:53.306Z,30.53
2023-09-08T14:00:03.648Z,30.77
2023-09-08T14:04:17.854Z,30.94
2023-09-08T14:08:28.542Z,31.20
2023-09-08T14:12:35.149Z,31.34
2023-09-08T14:16:39.238Z,31.53
2023-09-08T14:20:44.323Z,31.81
2023-09-08T14:24:46.966Z,31.86
2023-09-08T14:28:49.665Z,31.87
2023-09-08T14:32:52.372Z,31.91
2023-09-08T14:36:56.400Z,31.98
2023-09-08T14:41:00.608Z,32.11
2023-09-08T14:45:03.455Z,32.28
2023-09-08T14:49:06.162Z,32.48
2023-09-08T14:53:10.185Z,32.41
2023-09-08T14:57:12.842Z,32.51
2023-09-08T15:01:15.580Z,32.51
2023-09-08T15:05:18.291Z,32.98
2023-09-08T15:09:22.373Z,32.92
2023-09-08T15:13:25.374Z,33.11
2023-09-08T15:17:28.176Z,33.24
2023-09-08T15:21:31.619Z,33.16
2023-09-08T15:25:35.666Z,33.15
2023-09-08T15:29:38.379Z,33.08
2023-09-08T15:33:41.217Z,33.10
2023-09-08T15:37:44.184Z,33.29
2023-09-08T15:41:48.165Z,33.47
2023-09-08T15:45:50.901Z,33.64
2023-09-08T15:49:53.621Z,33.84
2023-09-08T15:53:56.272Z,33.48
2023-09-08T15:58:01.414Z,33.18
2023-09-08T16:02:04.631Z,33.49
2023-09-08T16:06:08.974Z,33.11
2023-09-08T16:10:11.839Z,33.45
2023-09-08T16:14:15.856Z,33.40
2023-09-08T16:18:19.207Z,33.28
2023-09-08T16:22:22.366Z,33.08
2023-09-08T16:26:25.104Z,33.26
2023-09-08T16:30:29.885Z,33.49
2023-09-08T16:34:32.547Z,33.61
2023-09-08T16:38:35.775Z,33.54
2023-09-08T16:42:48.999Z,33.24
2023-09-08T16:46:51.767Z,33.43
2023-09-08T16:50:54.499Z,33.34
2023-09-08T16:54:57.120Z,33.82
2023-09-08T16:59:01.110Z,33.51
2023-09-08T17:03:04.116Z,33.11
2023-09-08T17:07:06.906Z,32.95
2023-09-08T17:11:11.372Z,33.15
2023-09-08T17:15:15.451Z,32.95
2023-09-08T17:19:18.110Z,32.66
2023-09-08T17:23:21.937Z,31.52
2023-09-08T17:27:24.856Z,30.22
2023-09-08T17:31:30.821Z,28.99
2023-09-08T17:35:36.328Z,28.14
2023-09-08T17:39:38.947Z,27.66
2023-09-08T17:43:41.632Z,27.31
2023-09-08T17:47:45.630Z,26.64
2023-09-08T17:51:48.324Z,26.35
2023-09-08T17:55:50.989Z,25.94
2023-09-08T17:59:53.616Z,25.44
2023-09-08T18:03:57.816Z,24.94
2023-09-08T18:08:00.616Z,24.53
2023-09-08T18:12:03.584Z,24.20
2023-09-08T18:16:06.591Z,23.89
2023-09-08T18:20:11.908Z,23.52
2023-09-08T18:24:14.640Z,23.05
2023-09-08T18:28:17.837Z,22.88
2023-09-08T18:32:20.503Z,22.65
2023-09-08T18:36:24.372Z,22.52
2023-09-08T18:40:27.084Z,22.32
2023-09-08T18:44:29.604Z,21.95
2023-09-08T18:48:32.294Z,21.41
2023-09-08T18:52:36.299Z,21.47
2023-09-08T18:56:38.953Z,21.35
2023-09-08T19:00:44.273Z,21.03
2023-09-08T19:04:46.989Z,20.93
2023-09-08T19:08:51.458Z,20.60
2023-09-08T19:12:54.110Z,20.23
2023-09-08T19:16:58.422Z,20.10
2023-09-08T19:21:01.437Z,20.29
2023-09-08T19:25:06.993Z,20.34
2023-09-08T19:29:09.748Z,20.04
2023-09-08T19:33:12.429Z,19.77
2023-09-08T19:37:15.935Z,19.68
2023-09-08T19:41:24.770Z,19.47
2023-09-08T19:45:27.483Z,19.33
2023-09-08T19:49:30.141Z,19.18
2023-09-08T19:53:32.866Z,19.06
2023-09-08T19:57:36.872Z,18.98
2023-09-08T20:01:39.582Z,18.92
2023-09-08T20:05:43.820Z,18.90
2023-09-08T20:09:46.680Z,18.76
2023-09-08T20:13:50.719Z,18.58
2023-09-08T20:17:53.369Z,18.45
2023-09-08T20:21:56.861Z,18.37
2023-09-08T20:25:59.761Z,18.16
2023-09-08T20:30:04.037Z,18.04
2023-09-08T20:34:06.782Z,17.89
2023-09-08T20:38:10.184Z,17.71
2023-09-08T20:42:12.864Z,17.66
2023-09-08T20:46:16.903Z,17.65
2023-09-08T20:50:19.638Z,17.50
2023-09-08T20:54:22.462Z,17.40
2023-09-08T20:58:26.829Z,17.28
